Harrison Valley, Pennsylvania
Current Conditions -  °F | °C
As of 3:35 PM on Monday 26 Jan 2015 (Local Time) from KN38 Reporting Station
Light Snow Light Snow  
Wind Chill:   Ceiling: 400
Heat Index: 16°   Visibility: 0.5mi
Dew Point: 14°   Wind: 8mph
Humidity: 93%   Direction: 20°NNE
Pressure: 29.75"   Gusts: NA
Location:  41.94°N, 77.65°W
Report Text: KN38 262035Z AUTO 02007KT 1/2SM -SN BKN004 BKN009 OVC021 M09/M10 A2975 RMK AO2
Loading
Personal Weather Stations






























Interactive Weather Map New forecast layout! Learn more

10-Day Weather Forecast

Advertisements
Track Severe Weather on mobile